Time;durP1;ratioP1;P1;durP2;ratioP2;P2;SDS_P1;SDS_P2;PMS_P1;PMS_P2;Temp;Humidity;BMP_temperature;BMP_pressure;BME280_temperature;BME280_humidity;BME280_pressure;Samples;Min_cycle;Max_cycle;Signal;HPM_P1;HPM_P2
2021/08/14 00:01:32;;;;;;;10.45;5.00;;;;;;;;;;5003538;28;20026;-66
2021/08/14 00:03:58;;;;;;;10.55;5.00;;;;;;;;;;5010071;28;20081;-66
2021/08/14 00:06:24;;;;;;;7.63;5.07;;;;;;;;;;5017265;28;20426;-67
2021/08/14 00:08:50;;;;;;;7.63;5.20;;;;;;;;;;5006279;28;20044;-67
2021/08/14 00:11:16;;;;;;;11.52;5.50;;;;;;;;;;5007429;28;20073;-66
2021/08/14 00:13:42;;;;;;;8.75;5.32;;;;;;;;;;5010950;28;20036;-66
2021/08/14 00:16:09;;;;;;;7.70;4.90;;;;;;;;;;5007647;28;20030;-64
2021/08/14 00:18:35;;;;;;;9.00;4.75;;;;;;;;;;5010688;28;20034;-67
2021/08/14 00:21:01;;;;;;;6.35;4.75;;;;;;;;;;5002709;28;20046;-64
2021/08/14 00:23:27;;;;;;;7.68;4.60;;;;;;;;;;5008826;28;20033;-66
2021/08/14 00:25:55;;;;;;;11.48;5.65;;;;;;;;;;5000526;28;20014;-65
2021/08/14 00:28:21;;;;;;;11.88;5.90;;;;;;;;;;5007231;28;20034;-66
2021/08/14 00:30:47;;;;;;;11.80;5.68;;;;;;;;;;5007871;28;20048;-66
2021/08/14 00:33:13;;;;;;;11.02;5.78;;;;;;;;;;5004811;28;20038;-66
2021/08/14 00:35:39;;;;;;;8.50;6.20;;;;;;;;;;5008129;28;20026;-66
2021/08/14 00:38:05;;;;;;;9.00;5.50;;;;;;;;;;5010354;28;20026;-67
2021/08/14 00:40:31;;;;;;;10.80;5.95;;;;;;;;;;5005244;28;20113;-68
2021/08/14 00:42:57;;;;;;;12.13;5.90;;;;;;;;;;5005240;28;20114;-67
2021/08/14 00:45:23;;;;;;;10.55;5.97;;;;;;;;;;5007271;28;20041;-67
2021/08/14 00:47:49;;;;;;;12.73;5.68;;;;;;;;;;5005391;28;20227;-69
2021/08/14 00:50:16;;;;;;;8.60;5.80;;;;;;;;;;5010581;28;20022;-68
2021/08/14 00:52:42;;;;;;;8.73;5.45;;;;;;;;;;5016122;28;20455;-67
2021/08/14 00:55:08;;;;;;;9.13;5.15;;;;;;;;;;5005545;28;20043;-68
2021/08/14 00:57:35;;;;;;;9.73;5.20;;;;;;;;;;5008396;28;20037;-67
2021/08/14 01:00:01;;;;;;;17.45;5.30;;;;;;;;;;5014471;28;20408;-68
2021/08/14 01:02:27;;;;;;;13.18;5.68;;;;;;;;;;5012411;28;20087;-69
2021/08/14 01:04:53;;;;;;;15.32;5.82;;;;;;;;;;5018700;28;20018;-68
2021/08/14 01:07:19;;;;;;;12.82;5.20;;;;;;;;;;5011908;28;20038;-69
2021/08/14 01:09:46;;;;;;;15.73;5.28;;;;;;;;;;5013706;28;20017;-69
2021/08/14 01:12:14;;;;;;;11.65;5.40;;;;;;;;;;5009689;28;20116;-68
2021/08/14 01:14:40;;;;;;;14.90;5.38;;;;;;;;;;5009093;28;20097;-67
2021/08/14 01:17:06;;;;;;;10.07;5.40;;;;;;;;;;5010801;28;20791;-65
2021/08/14 01:19:32;;;;;;;7.78;5.10;;;;;;;;;;5010904;28;20105;-68
2021/08/14 01:21:58;;;;;;;8.02;4.60;;;;;;;;;;5012514;28;20025;-66
2021/08/14 01:24:24;;;;;;;8.95;4.80;;;;;;;;;;5011103;28;20022;-67
2021/08/14 01:26:51;;;;;;;9.43;4.60;;;;;;;;;;5012692;28;20074;-65
2021/08/14 01:29:17;;;;;;;11.27;5.05;;;;;;;;;;5011359;28;20041;-66
2021/08/14 01:31:43;;;;;;;8.90;4.82;;;;;;;;;;5013486;28;20100;-66
2021/08/14 01:34:10;;;;;;;7.82;4.80;;;;;;;;;;5012072;28;20056;-68
2021/08/14 01:36:36;;;;;;;9.45;5.00;;;;;;;;;;5008866;28;20033;-65
2021/08/14 01:39:03;;;;;;;8.55;4.97;;;;;;;;;;5009466;28;20029;-66
2021/08/14 01:41:30;;;;;;;9.10;5.32;;;;;;;;;;5009784;28;20037;-66
2021/08/14 01:44:01;;;;;;;8.07;4.97;;;;;;;;;;5013632;28;20503;-69
2021/08/14 01:46:28;;;;;;;10.48;5.03;;;;;;;;;;5013939;28;20553;-69
2021/08/14 01:48:54;;;;;;;7.68;5.40;;;;;;;;;;4993601;28;20373;-67
2021/08/14 01:51:20;;;;;;;7.13;4.78;;;;;;;;;;5017565;28;20037;-68
2021/08/14 01:53:51;;;;;;;6.72;4.72;;;;;;;;;;5014287;28;20065;-66
2021/08/14 01:56:17;;;;;;;6.07;4.68;;;;;;;;;;5009378;28;20030;-68
2021/08/14 01:58:43;;;;;;;9.50;5.07;;;;;;;;;;5010697;28;20066;-66
2021/08/14 02:01:10;;;;;;;6.80;4.70;;;;;;;;;;5012893;28;20030;-66
2021/08/14 02:03:37;;;;;;;8.13;5.05;;;;;;;;;;5012931;28;20033;-69
2021/08/14 02:06:03;;;;;;;7.88;4.72;;;;;;;;;;5012701;28;20022;-67
2021/08/14 02:08:29;;;;;;;7.85;4.80;;;;;;;;;;5011314;28;20034;-63
2021/08/14 02:10:56;;;;;;;7.07;4.90;;;;;;;;;;5008676;28;20383;-65
2021/08/14 02:13:22;;;;;;;8.82;5.00;;;;;;;;;;5011440;28;20128;-65
2021/08/14 02:15:48;;;;;;;7.72;5.03;;;;;;;;;;5003550;28;20027;-67
2021/08/14 02:18:14;;;;;;;5.40;4.43;;;;;;;;;;5006491;28;20034;-67
2021/08/14 02:20:40;;;;;;;10.52;4.60;;;;;;;;;;5009459;28;20064;-67
2021/08/14 02:23:06;;;;;;;8.15;4.43;;;;;;;;;;5013007;28;20030;-67
2021/08/14 02:25:32;;;;;;;5.75;4.55;;;;;;;;;;5012039;28;20036;-67
2021/08/14 02:27:58;;;;;;;10.10;4.78;;;;;;;;;;5010930;28;20064;-67
2021/08/14 02:30:24;;;;;;;10.45;4.93;;;;;;;;;;5009154;28;20025;-68
2021/08/14 02:32:50;;;;;;;6.53;4.82;;;;;;;;;;5011656;28;20057;-69
2021/08/14 02:35:16;;;;;;;7.88;4.93;;;;;;;;;;5011602;28;20114;-66
2021/08/14 02:37:43;;;;;;;8.15;5.07;;;;;;;;;;5010950;28;20052;-68
2021/08/14 02:40:09;;;;;;;6.75;5.07;;;;;;;;;;5005892;28;20030;-66
2021/08/14 02:42:40;;;;;;;10.32;5.20;;;;;;;;;;5009743;28;20483;-66
2021/08/14 02:45:07;;;;;;;8.75;4.80;;;;;;;;;;5012343;28;20029;-66
2021/08/14 02:47:33;;;;;;;8.70;4.70;;;;;;;;;;5011592;28;20080;-66
2021/08/14 02:49:59;;;;;;;9.20;5.13;;;;;;;;;;5009006;28;20061;-66
2021/08/14 02:52:25;;;;;;;6.15;4.45;;;;;;;;;;5019556;28;20029;-66
2021/08/14 02:54:51;;;;;;;7.55;4.88;;;;;;;;;;5011740;28;20045;-63
2021/08/14 02:57:17;;;;;;;6.68;4.72;;;;;;;;;;5009684;28;20079;-65
2021/08/14 02:59:44;;;;;;;5.55;4.50;;;;;;;;;;5012014;28;20026;-69
2021/08/14 03:02:10;;;;;;;8.73;4.60;;;;;;;;;;5011378;28;20037;-68
2021/08/14 03:04:36;;;;;;;9.63;5.32;;;;;;;;;;5011093;28;20034;-68
2021/08/14 03:07:02;;;;;;;8.30;4.93;;;;;;;;;;5011442;28;20082;-68
2021/08/14 03:09:28;;;;;;;5.72;4.80;;;;;;;;;;5011724;28;20050;-68
2021/08/14 03:11:54;;;;;;;6.45;4.75;;;;;;;;;;5009505;28;20098;-68
2021/08/14 03:14:20;;;;;;;6.95;4.78;;;;;;;;;;5010974;28;20109;-67
2021/08/14 03:16:46;;;;;;;10.00;5.22;;;;;;;;;;5015761;28;20029;-67
2021/08/14 03:19:12;;;;;;;9.50;4.90;;;;;;;;;;5012325;28;20033;-66
2021/08/14 03:21:38;;;;;;;8.75;5.03;;;;;;;;;;5009947;28;20542;-67
2021/08/14 03:24:04;;;;;;;10.88;5.70;;;;;;;;;;5010638;28;20399;-66
2021/08/14 03:26:30;;;;;;;10.75;4.85;;;;;;;;;;5009096;28;20095;-66
2021/08/14 03:28:56;;;;;;;7.40;5.07;;;;;;;;;;5011621;28;20025;-68
2021/08/14 03:31:22;;;;;;;7.32;4.65;;;;;;;;;;5010872;28;20048;-67
2021/08/14 03:33:49;;;;;;;6.70;4.82;;;;;;;;;;5015969;28;20021;-67
2021/08/14 03:36:15;;;;;;;7.25;5.07;;;;;;;;;;5010256;28;20034;-66
2021/08/14 03:38:42;;;;;;;10.32;5.05;;;;;;;;;;5011707;28;20080;-66
2021/08/14 03:41:08;;;;;;;8.50;5.70;;;;;;;;;;5010506;28;20369;-67
2021/08/14 03:43:35;;;;;;;7.28;4.53;;;;;;;;;;5011087;28;20061;-67
2021/08/14 03:46:01;;;;;;;7.20;5.13;;;;;;;;;;5010172;28;20080;-67
2021/08/14 03:48:27;;;;;;;6.15;4.80;;;;;;;;;;5011682;28;20066;-67
2021/08/14 03:50:53;;;;;;;8.60;4.90;;;;;;;;;;5012986;28;20030;-67
2021/08/14 03:53:19;;;;;;;5.75;4.60;;;;;;;;;;5009388;28;20026;-67
2021/08/14 03:55:45;;;;;;;5.93;4.57;;;;;;;;;;5010391;28;20042;-67
2021/08/14 03:58:12;;;;;;;10.32;5.20;;;;;;;;;;5011303;28;20054;-67
2021/08/14 04:00:38;;;;;;;8.95;5.30;;;;;;;;;;5011403;28;20041;-67
2021/08/14 04:03:04;;;;;;;19.20;5.25;;;;;;;;;;5009105;28;20053;-67
2021/08/14 04:05:30;;;;;;;10.75;5.03;;;;;;;;;;5008585;28;20033;-67
2021/08/14 04:07:56;;;;;;;11.52;5.38;;;;;;;;;;5009995;28;20532;-66
2021/08/14 04:10:22;;;;;;;9.60;4.93;;;;;;;;;;4992050;28;20046;-66
2021/08/14 04:12:50;;;;;;;12.00;6.00;;;;;;;;;;5006223;28;20038;-67
2021/08/14 04:15:16;;;;;;;8.07;5.93;;;;;;;;;;5010809;28;20068;-68
2021/08/14 04:17:42;;;;;;;7.65;4.95;;;;;;;;;;5006864;28;20026;-67
2021/08/14 04:20:09;;;;;;;10.95;5.05;;;;;;;;;;5010953;28;20034;-67
2021/08/14 04:22:35;;;;;;;10.32;5.07;;;;;;;;;;5011679;28;20041;-67
2021/08/14 04:25:01;;;;;;;7.63;5.32;;;;;;;;;;5010686;28;20037;-67
2021/08/14 04:27:27;;;;;;;13.98;6.18;;;;;;;;;;5011417;28;20595;-68
2021/08/14 04:29:53;;;;;;;9.73;5.65;;;;;;;;;;5008755;28;20030;-68
2021/08/14 04:32:19;;;;;;;8.63;5.32;;;;;;;;;;5012425;28;20041;-66
2021/08/14 04:34:45;;;;;;;9.63;5.25;;;;;;;;;;5026749;28;20026;-68
2021/08/14 04:37:13;;;;;;;13.10;5.68;;;;;;;;;;5025071;28;20032;-68
2021/08/14 04:39:39;;;;;;;7.55;5.07;;;;;;;;;;5007932;28;20109;-67
2021/08/14 04:42:05;;;;;;;11.98;5.60;;;;;;;;;;5013107;28;20036;-67
2021/08/14 04:44:31;;;;;;;8.52;5.63;;;;;;;;;;5014817;28;20030;-68
2021/08/14 04:46:59;;;;;;;15.23;5.70;;;;;;;;;;5014177;28;20120;-67
2021/08/14 04:49:26;;;;;;;17.00;6.47;;;;;;;;;;5010659;28;20488;-69
2021/08/14 04:51:52;;;;;;;19.58;6.65;;;;;;;;;;5015594;28;20384;-69
2021/08/14 04:54:18;;;;;;;13.68;6.60;;;;;;;;;;5012125;28;20037;-65
2021/08/14 04:56:44;;;;;;;12.77;5.60;;;;;;;;;;5013658;28;20030;-68
2021/08/14 04:59:10;;;;;;;11.73;5.90;;;;;;;;;;5011716;28;20053;-68
2021/08/14 05:01:36;;;;;;;9.95;5.22;;;;;;;;;;5013251;28;20388;-68
2021/08/14 05:04:04;;;;;;;10.68;5.25;;;;;;;;;;5018958;28;20029;-69
2021/08/14 05:06:30;;;;;;;9.60;5.05;;;;;;;;;;5015919;28;20625;-67
2021/08/14 05:08:56;;;;;;;6.75;4.93;;;;;;;;;;5011781;28;20041;-68
2021/08/14 05:11:23;;;;;;;14.02;5.57;;;;;;;;;;5009299;28;20025;-69
2021/08/14 05:13:49;;;;;;;10.95;5.50;;;;;;;;;;5013868;28;20030;-69
2021/08/14 05:16:15;;;;;;;17.23;5.78;;;;;;;;;;5008831;28;20030;-68
2021/08/14 05:18:41;;;;;;;7.63;5.22;;;;;;;;;;5010213;28;20148;-64
2021/08/14 05:21:07;;;;;;;11.05;5.65;;;;;;;;;;5020371;28;20499;-81
2021/08/14 05:23:33;;;;;;;11.63;5.68;;;;;;;;;;5011156;28;20369;-76
2021/08/14 05:25:59;;;;;;;10.00;5.00;;;;;;;;;;5014268;28;20029;-78
2021/08/14 05:28:43;;;;;;;12.48;5.30;;;;;;;;;;5013573;28;20030;-84
2021/08/14 05:31:09;;;;;;;8.80;5.20;;;;;;;;;;5019237;28;20451;-68
2021/08/14 05:33:36;;;;;;;10.80;5.63;;;;;;;;;;5008671;28;20454;-72
2021/08/14 05:36:02;;;;;;;7.47;5.15;;;;;;;;;;4990611;28;20037;-68
2021/08/14 05:38:28;;;;;;;11.85;5.40;;;;;;;;;;5009966;28;20026;-66
2021/08/14 05:40:54;;;;;;;10.85;6.32;;;;;;;;;;5012964;28;20076;-68
2021/08/14 05:43:21;;;;;;;16.27;6.93;;;;;;;;;;5008618;28;20558;-70
2021/08/14 05:45:47;;;;;;;16.27;7.80;;;;;;;;;;5012099;28;20075;-68
2021/08/14 05:59:38;;;;;;;9.10;5.85;;;;;;;;;;5118155;27;20379;-72
2021/08/14 06:02:04;;;;;;;8.98;5.05;;;;;;;;;;5127915;27;20028;-68
2021/08/14 06:04:30;;;;;;;9.00;5.25;;;;;;;;;;5123660;27;20027;-68
2021/08/14 06:06:56;;;;;;;7.90;5.53;;;;;;;;;;5128413;27;20016;-69
2021/08/14 06:09:22;;;;;;;10.38;5.47;;;;;;;;;;5129450;27;20035;-67
2021/08/14 06:11:48;;;;;;;12.07;5.63;;;;;;;;;;5126690;27;20020;-78
2021/08/14 06:14:14;;;;;;;8.20;5.22;;;;;;;;;;5114202;27;20481;-65
2021/08/14 06:16:40;;;;;;;12.63;6.10;;;;;;;;;;5129514;27;20030;-67
2021/08/14 06:19:07;;;;;;;8.20;5.53;;;;;;;;;;5129709;27;20441;-68
2021/08/14 06:21:33;;;;;;;11.52;5.90;;;;;;;;;;5126477;27;20055;-66
2021/08/14 06:23:59;;;;;;;11.70;6.10;;;;;;;;;;5129660;27;20032;-66
2021/08/14 06:26:25;;;;;;;15.25;5.88;;;;;;;;;;5129147;27;20472;-70
2021/08/14 06:28:51;;;;;;;17.92;10.80;;;;;;;;;;5125600;27;20046;-70
2021/08/14 06:31:17;;;;;;;37.40;16.52;;;;;;;;;;5128346;27;20039;-70
2021/08/14 06:33:44;;;;;;;35.65;18.55;;;;;;;;;;5126129;27;20020;-71
2021/08/14 06:36:10;;;;;;;40.75;20.73;;;;;;;;;;5125248;27;20476;-70
2021/08/14 06:38:36;;;;;;;41.20;22.15;;;;;;;;;;5128613;27;20024;-69
2021/08/14 06:41:03;;;;;;;39.67;16.85;;;;;;;;;;5128882;27;20028;-71
2021/08/14 06:43:29;;;;;;;11.77;7.03;;;;;;;;;;5127619;27;20019;-70
2021/08/14 06:45:55;;;;;;;22.77;12.35;;;;;;;;;;5128591;27;20024;-70
2021/08/14 06:48:22;;;;;;;34.83;16.63;;;;;;;;;;5128388;27;20071;-69
2021/08/14 06:50:48;;;;;;;34.95;19.98;;;;;;;;;;5112493;27;20385;-66
2021/08/14 06:53:14;;;;;;;37.67;18.73;;;;;;;;;;5107468;28;20032;-70
2021/08/14 06:55:40;;;;;;;34.60;19.60;;;;;;;;;;5107079;28;20036;-71
2021/08/14 06:58:06;;;;;;;28.75;18.38;;;;;;;;;;5116012;28;20481;-72
2021/08/14 07:00:33;;;;;;;39.15;22.33;;;;;;;;;;5114139;28;20031;-71
2021/08/14 07:02:59;;;;;;;26.33;15.45;;;;;;;;;;5114007;28;20083;-69
2021/08/14 07:05:25;;;;;;;26.10;13.27;;;;;;;;;;5112879;28;20028;-68
2021/08/14 07:07:51;;;;;;;20.52;12.15;;;;;;;;;;5110656;28;20040;-69
2021/08/14 07:10:17;;;;;;;18.85;10.93;;;;;;;;;;5112869;28;20036;-70
2021/08/14 07:12:44;;;;;;;20.00;8.25;;;;;;;;;;5112174;28;20035;-69
2021/08/14 07:15:11;;;;;;;13.05;7.10;;;;;;;;;;5106615;28;20019;-69
2021/08/14 07:17:37;;;;;;;14.70;7.35;;;;;;;;;;5108818;28;20487;-68
2021/08/14 07:20:03;;;;;;;16.83;7.15;;;;;;;;;;5111221;28;20069;-70
2021/08/14 07:22:31;;;;;;;17.98;5.90;;;;;;;;;;5114981;28;20392;-70
2021/08/14 07:24:57;;;;;;;16.63;6.20;;;;;;;;;;5112990;28;20028;-66
2021/08/14 07:27:25;;;;;;;16.80;6.40;;;;;;;;;;5111763;28;20047;-70
2021/08/14 07:29:51;;;;;;;20.70;6.38;;;;;;;;;;5113676;28;20035;-70
2021/08/14 07:32:17;;;;;;;20.48;6.10;;;;;;;;;;5113279;28;20035;-68
2021/08/14 07:34:43;;;;;;;16.65;6.30;;;;;;;;;;5113702;28;20024;-69
2021/08/14 07:37:10;;;;;;;12.75;6.30;;;;;;;;;;5114179;28;20024;-70
2021/08/14 07:39:36;;;;;;;19.33;6.15;;;;;;;;;;5114575;28;20455;-69
2021/08/14 07:42:02;;;;;;;11.30;6.00;;;;;;;;;;5113300;28;20455;-70
2021/08/14 07:44:28;;;;;;;11.80;6.45;;;;;;;;;;5118339;27;20438;-70
2021/08/14 07:46:54;;;;;;;10.38;6.13;;;;;;;;;;5111698;28;20391;-67
2021/08/14 07:49:20;;;;;;;11.25;5.53;;;;;;;;;;5112611;28;20437;-68
2021/08/14 07:51:46;;;;;;;14.25;6.80;;;;;;;;;;5109850;28;20032;-69
2021/08/14 07:54:12;;;;;;;12.23;6.10;;;;;;;;;;5113228;28;20051;-70
2021/08/14 07:56:39;;;;;;;10.77;5.45;;;;;;;;;;5115026;28;20384;-71
2021/08/14 07:59:05;;;;;;;10.18;5.35;;;;;;;;;;5112557;28;20100;-69
2021/08/14 08:01:31;;;;;;;12.98;6.07;;;;;;;;;;5112498;28;20112;-71
2021/08/14 08:03:57;;;;;;;13.10;5.53;;;;;;;;;;5113058;28;20042;-68
2021/08/14 08:06:23;;;;;;;14.60;5.70;;;;;;;;;;5112257;28;20076;-71
2021/08/14 08:08:49;;;;;;;11.27;5.68;;;;;;;;;;5113571;28;20423;-67
2021/08/14 08:11:16;;;;;;;12.07;5.90;;;;;;;;;;5111416;28;20478;-71
2021/08/14 08:13:42;;;;;;;8.65;5.20;;;;;;;;;;5112700;28;20023;-69
2021/08/14 08:16:08;;;;;;;9.57;5.72;;;;;;;;;;5108923;28;20350;-67
2021/08/14 08:18:34;;;;;;;11.05;5.38;;;;;;;;;;5112576;28;20027;-68
2021/08/14 08:21:00;;;;;;;9.48;5.82;;;;;;;;;;5111360;28;20023;-69
2021/08/14 08:23:26;;;;;;;12.90;5.72;;;;;;;;;;5109968;28;20504;-67
2021/08/14 08:25:52;;;;;;;11.63;5.95;;;;;;;;;;5112616;28;20019;-67
2021/08/14 08:28:22;;;;;;;9.77;5.90;;;;;;;;;;5111488;28;20044;-70
2021/08/14 08:30:48;;;;;;;12.02;5.70;;;;;;;;;;5112313;28;20102;-82
2021/08/14 08:33:14;;;;;;;13.63;6.15;;;;;;;;;;5112910;28;20103;-71
2021/08/14 08:35:40;;;;;;;13.40;5.10;;;;;;;;;;5109902;28;20055;-69
2021/08/14 08:38:07;;;;;;;11.93;5.60;;;;;;;;;;5112383;28;20110;-71
2021/08/14 08:40:36;;;;;;;7.30;5.10;;;;;;;;;;5113017;28;20083;-70
2021/08/14 08:43:02;;;;;;;9.70;5.07;;;;;;;;;;5111789;28;20039;-69
2021/08/14 08:45:28;;;;;;;9.88;4.80;;;;;;;;;;5122393;27;20100;-69
2021/08/14 08:47:57;;;;;;;10.52;5.00;;;;;;;;;;5112190;28;20036;-69
2021/08/14 08:50:23;;;;;;;7.32;4.70;;;;;;;;;;5110082;28;20466;-70
2021/08/14 08:52:49;;;;;;;10.38;5.10;;;;;;;;;;5104870;28;20076;-70
2021/08/14 08:55:15;;;;;;;11.45;5.10;;;;;;;;;;5108152;28;20043;-69
2021/08/14 08:57:41;;;;;;;13.07;5.00;;;;;;;;;;5110246;28;20546;-70
2021/08/14 09:00:09;;;;;;;6.78;4.88;;;;;;;;;;5112525;28;20545;-69
2021/08/14 09:02:36;;;;;;;8.02;4.50;;;;;;;;;;5110698;28;20027;-70
2021/08/14 09:05:08;;;;;;;8.90;4.93;;;;;;;;;;5111669;28;20020;-70
2021/08/14 09:07:35;;;;;;;10.07;5.00;;;;;;;;;;5112409;28;20035;-70
2021/08/14 09:10:05;;;;;;;7.68;4.75;;;;;;;;;;5110910;28;20473;-69
2021/08/14 09:12:32;;;;;;;8.10;5.18;;;;;;;;;;5096920;28;20079;-70
2021/08/14 09:14:59;;;;;;;11.82;5.45;;;;;;;;;;5112478;28;20099;-71
2021/08/14 09:17:26;;;;;;;8.82;4.88;;;;;;;;;;5112383;28;20376;-70
2021/08/14 09:20:12;;;;;;;7.85;4.78;;;;;;;;;;5111774;28;20054;-70
2021/08/14 09:22:39;;;;;;;10.02;4.90;;;;;;;;;;5106761;28;20016;-70
2021/08/14 09:25:17;;;;;;;9.05;4.70;;;;;;;;;;5112548;28;20031;-71
2021/08/14 09:27:55;;;;;;;8.02;4.68;;;;;;;;;;5112287;28;20042;-70
2021/08/14 09:30:21;;;;;;;6.28;4.53;;;;;;;;;;5111933;28;20032;-70
2021/08/14 09:33:09;;;;;;;8.25;4.55;;;;;;;;;;5111020;28;20076;-70
2021/08/14 09:35:35;;;;;;;9.57;4.90;;;;;;;;;;5107219;28;20477;-70
2021/08/14 09:38:05;;;;;;;9.85;4.82;;;;;;;;;;5111789;28;20046;-71
2021/08/14 09:40:38;;;;;;;9.27;4.93;;;;;;;;;;5104387;28;20475;-70
2021/08/14 09:43:04;;;;;;;11.93;5.07;;;;;;;;;;5111389;28;20122;-70
2021/08/14 09:45:31;;;;;;;7.82;5.53;;;;;;;;;;5121431;28;20023;-70
2021/08/14 09:47:57;;;;;;;13.68;6.03;;;;;;;;;;5112289;28;20381;-70
2021/08/14 09:50:33;;;;;;;11.88;5.00;;;;;;;;;;5110375;28;20095;-70
2021/08/14 09:53:12;;;;;;;12.63;5.55;;;;;;;;;;5112196;28;20380;-70
2021/08/14 09:55:39;;;;;;;10.65;4.95;;;;;;;;;;5110098;28;20026;-71
2021/08/14 09:58:09;;;;;;;9.50;4.88;;;;;;;;;;5112044;28;20463;-70
2021/08/14 10:00:35;;;;;;;10.13;5.35;;;;;;;;;;5110964;28;20016;-71
2021/08/14 10:03:03;;;;;;;9.00;4.82;;;;;;;;;;5111909;28;20031;-69
2021/08/14 10:05:30;;;;;;;8.45;5.28;;;;;;;;;;5114760;28;20011;-69
2021/08/14 10:07:56;;;;;;;16.50;5.70;;;;;;;;;;5111756;28;20377;-69
2021/08/14 10:10:22;;;;;;;8.95;4.93;;;;;;;;;;5114519;28;20020;-69
2021/08/14 10:12:48;;;;;;;7.22;5.05;;;;;;;;;;5112003;28;20019;-69
2021/08/14 10:15:15;;;;;;;9.40;5.28;;;;;;;;;;5111714;28;20031;-69
2021/08/14 10:17:41;;;;;;;9.80;4.85;;;;;;;;;;5107507;28;20146;-68
2021/08/14 10:20:07;;;;;;;11.27;5.05;;;;;;;;;;5115485;28;20030;-67
2021/08/14 10:22:33;;;;;;;8.85;5.32;;;;;;;;;;5109776;28;20020;-70
2021/08/14 10:24:59;;;;;;;9.73;5.35;;;;;;;;;;5111700;28;20021;-70
2021/08/14 10:27:27;;;;;;;9.15;5.00;;;;;;;;;;5104245;28;20066;-71
2021/08/14 10:30:00;;;;;;;8.45;4.93;;;;;;;;;;5092548;28;20016;-71
2021/08/14 10:32:35;;;;;;;8.88;5.07;;;;;;;;;;5111434;28;20034;-71
2021/08/14 10:35:13;;;;;;;9.75;5.50;;;;;;;;;;5110012;28;20131;-70
2021/08/14 10:37:40;;;;;;;8.00;4.72;;;;;;;;;;5114901;28;20084;-70
2021/08/14 10:40:07;;;;;;;9.68;5.53;;;;;;;;;;5115232;28;20030;-70
2021/08/14 10:42:54;;;;;;;7.78;5.10;;;;;;;;;;5115358;28;20027;-70
2021/08/14 10:45:20;;;;;;;8.10;5.43;;;;;;;;;;5124662;27;20039;-70
2021/08/14 10:47:46;;;;;;;11.00;5.45;;;;;;;;;;5114892;28;20035;-71
2021/08/14 10:50:31;;;;;;;10.00;5.45;;;;;;;;;;5113657;28;20023;-70
2021/08/14 10:53:12;;;;;;;9.40;5.22;;;;;;;;;;5115500;28;20095;-71
2021/08/14 10:55:39;;;;;;;9.73;5.32;;;;;;;;;;5114985;28;20377;-70
2021/08/14 10:58:24;;;;;;;8.38;5.25;;;;;;;;;;5114332;28;20197;-70
2021/08/14 11:01:03;;;;;;;8.15;5.55;;;;;;;;;;5111452;28;20564;-69
2021/08/14 11:03:36;;;;;;;9.07;5.55;;;;;;;;;;5115146;28;20028;-70
2021/08/14 11:06:21;;;;;;;8.40;5.50;;;;;;;;;;5114475;28;20084;-71
2021/08/14 11:08:47;;;;;;;6.78;4.90;;;;;;;;;;5114476;28;20066;-71
2021/08/14 11:11:48;;;;;;;9.13;5.82;;;;;;;;;;5114133;28;20080;-71
2021/08/14 11:14:15;;;;;;;7.05;5.60;;;;;;;;;;5008580;28;20033;-70
2021/08/14 11:17:00;;;;;;;8.80;5.05;;;;;;;;;;5005265;28;20038;-70
2021/08/14 11:19:44;;;;;;;8.80;5.55;;;;;;;;;;5011687;28;20073;-69
2021/08/14 11:22:25;;;;;;;14.43;5.70;;;;;;;;;;5011315;28;20049;-70
2021/08/14 11:24:52;;;;;;;13.35;5.40;;;;;;;;;;5012073;28;20018;-70
2021/08/14 11:27:24;;;;;;;10.02;5.75;;;;;;;;;;5012003;28;20120;-71
2021/08/14 11:29:55;;;;;;;9.13;5.43;;;;;;;;;;5012004;28;20145;-70
2021/08/14 11:32:22;;;;;;;9.23;5.32;;;;;;;;;;5011059;28;20022;-71
2021/08/14 11:34:49;;;;;;;9.43;5.90;;;;;;;;;;5010167;28;20057;-70
2021/08/14 11:37:15;;;;;;;8.77;5.32;;;;;;;;;;5012064;28;20575;-69
2021/08/14 11:39:41;;;;;;;8.38;5.53;;;;;;;;;;5015810;28;20117;-70
2021/08/14 11:42:10;;;;;;;7.55;5.53;;;;;;;;;;5010566;28;20045;-70
2021/08/14 11:44:37;;;;;;;7.65;5.47;;;;;;;;;;5004250;28;20025;-70
2021/08/14 11:47:04;;;;;;;8.20;5.38;;;;;;;;;;5014139;28;20105;-70
2021/08/14 11:49:30;;;;;;;10.88;6.05;;;;;;;;;;5114659;28;20400;-70
2021/08/14 11:52:02;;;;;;;7.68;5.85;;;;;;;;;;5113149;28;20019;-71
2021/08/14 11:54:29;;;;;;;8.93;5.80;;;;;;;;;;5112576;28;20034;-71
2021/08/14 11:57:07;;;;;;;6.88;5.35;;;;;;;;;;5113987;28;20114;-70
2021/08/14 11:59:34;;;;;;;8.68;5.93;;;;;;;;;;5114133;28;20039;-70
2021/08/14 12:02:00;;;;;;;8.18;5.50;;;;;;;;;;5114337;28;20186;-71
2021/08/14 12:04:26;;;;;;;8.85;5.35;;;;;;;;;;5112531;28;20503;-71
2021/08/14 12:06:56;;;;;;;9.27;5.90;;;;;;;;;;5114011;28;20478;-71
2021/08/14 12:09:22;;;;;;;12.48;6.15;;;;;;;;;;5113832;28;20070;-69
2021/08/14 12:11:57;;;;;;;13.75;6.50;;;;;;;;;;5118107;28;20024;-70
2021/08/14 12:14:25;;;;;;;7.85;5.70;;;;;;;;;;5112984;28;20485;-69
2021/08/14 12:16:58;;;;;;;8.85;5.72;;;;;;;;;;5104779;28;20110;-70
2021/08/14 12:19:24;;;;;;;9.45;5.80;;;;;;;;;;5114026;28;20023;-70
2021/08/14 12:21:51;;;;;;;8.57;5.68;;;;;;;;;;5113369;28;20469;-71
2021/08/14 12:24:17;;;;;;;11.07;5.82;;;;;;;;;;5113985;28;20111;-71
2021/08/14 12:26:43;;;;;;;7.60;5.45;;;;;;;;;;5117280;28;20038;-71
2021/08/14 12:29:10;;;;;;;13.77;6.15;;;;;;;;;;5113922;28;20043;-70
2021/08/14 12:31:47;;;;;;;7.57;5.90;;;;;;;;;;5087537;28;20412;-70
2021/08/14 12:34:24;;;;;;;8.82;6.00;;;;;;;;;;5113627;28;20106;-71
2021/08/14 12:37:05;;;;;;;8.10;5.50;;;;;;;;;;5108456;28;20012;-70
2021/08/14 12:39:43;;;;;;;10.05;6.00;;;;;;;;;;5105958;28;20027;-70
2021/08/14 12:42:15;;;;;;;8.68;6.32;;;;;;;;;;5115463;28;20118;-69
2021/08/14 12:44:42;;;;;;;7.32;5.72;;;;;;;;;;5113093;28;20020;-69
2021/08/14 12:47:08;;;;;;;9.35;5.93;;;;;;;;;;5112393;28;20714;-70
2021/08/14 12:49:34;;;;;;;10.73;5.63;;;;;;;;;;5113142;28;20031;-70
2021/08/14 12:52:04;;;;;;;11.35;6.13;;;;;;;;;;5112328;28;20547;-71
2021/08/14 12:54:38;;;;;;;10.80;6.22;;;;;;;;;;5112318;28;20081;-70
2021/08/14 12:57:13;;;;;;;8.00;6.13;;;;;;;;;;5116850;28;20026;-70
2021/08/14 12:59:39;;;;;;;10.02;6.13;;;;;;;;;;5097377;28;20040;-70
2021/08/14 13:02:06;;;;;;;12.50;5.70;;;;;;;;;;5112183;28;20376;-70
2021/08/14 13:04:33;;;;;;;12.27;5.68;;;;;;;;;;5110708;28;20538;-70
2021/08/14 13:07:04;;;;;;;9.07;5.75;;;;;;;;;;5114911;28;20011;-74
2021/08/14 13:09:31;;;;;;;8.70;5.68;;;;;;;;;;5109994;28;20499;-70
2021/08/14 13:11:57;;;;;;;7.68;5.68;;;;;;;;;;5111945;28;20102;-71
2021/08/14 13:14:27;;;;;;;11.20;6.32;;;;;;;;;;5106852;28;20061;-69
2021/08/14 13:16:54;;;;;;;10.45;5.97;;;;;;;;;;5115487;28;20022;-70
2021/08/14 13:19:20;;;;;;;15.05;6.30;;;;;;;;;;5117684;28;20715;-70
2021/08/14 13:21:48;;;;;;;10.50;6.20;;;;;;;;;;5116400;28;20016;-70
2021/08/14 13:24:14;;;;;;;9.85;6.00;;;;;;;;;;5115646;28;20153;-69
2021/08/14 13:26:41;;;;;;;9.38;6.15;;;;;;;;;;5112265;28;20023;-70
2021/08/14 13:29:10;;;;;;;14.02;6.97;;;;;;;;;;5109459;28;20114;-69
2021/08/14 13:31:40;;;;;;;9.15;6.15;;;;;;;;;;5110033;28;20023;-69
2021/08/14 13:34:07;;;;;;;11.25;6.78;;;;;;;;;;5111521;28;20111;-69
2021/08/14 13:36:33;;;;;;;13.70;6.25;;;;;;;;;;5111459;27;20393;-69
2021/08/14 13:38:59;;;;;;;8.88;5.90;;;;;;;;;;5112151;28;20368;-68
2021/08/14 13:41:25;;;;;;;9.07;6.00;;;;;;;;;;5109925;28;20073;-69
2021/08/14 13:43:53;;;;;;;12.43;6.00;;;;;;;;;;5110303;28;20111;-70
2021/08/14 13:46:19;;;;;;;9.20;6.25;;;;;;;;;;5110342;28;20031;-69
2021/08/14 13:48:45;;;;;;;10.02;6.03;;;;;;;;;;5111691;28;20062;-68
2021/08/14 13:51:11;;;;;;;7.60;5.72;;;;;;;;;;5111638;28;20485;-68
2021/08/14 13:53:37;;;;;;;11.27;5.97;;;;;;;;;;5111132;28;20110;-69
2021/08/14 13:56:06;;;;;;;8.52;5.53;;;;;;;;;;5111919;28;20123;-69
2021/08/14 13:58:33;;;;;;;9.98;6.15;;;;;;;;;;5112054;28;20153;-70
2021/08/14 14:00:59;;;;;;;10.23;6.22;;;;;;;;;;5109891;28;20012;-69
2021/08/14 14:03:26;;;;;;;9.80;5.97;;;;;;;;;;5111739;28;20055;-69
2021/08/14 14:05:52;;;;;;;9.65;5.90;;;;;;;;;;5111276;28;20073;-71
2021/08/14 14:08:18;;;;;;;10.43;6.40;;;;;;;;;;5111139;28;20095;-69
2021/08/14 14:10:45;;;;;;;11.05;6.03;;;;;;;;;;5111483;28;20031;-69
2021/08/14 14:13:11;;;;;;;8.60;5.75;;;;;;;;;;5110746;28;20077;-70
2021/08/14 14:15:37;;;;;;;7.65;5.65;;;;;;;;;;5108858;28;20107;-70
2021/08/14 14:18:04;;;;;;;9.27;5.28;;;;;;;;;;5109125;28;20027;-68
2021/08/14 14:20:30;;;;;;;11.45;5.50;;;;;;;;;;5108038;28;20036;-70
2021/08/14 14:22:56;;;;;;;10.30;5.60;;;;;;;;;;5107617;28;20027;-69
2021/08/14 14:25:22;;;;;;;9.32;5.60;;;;;;;;;;5115580;28;20020;-70
2021/08/14 14:27:49;;;;;;;10.93;5.60;;;;;;;;;;5115496;28;20419;-69
2021/08/14 14:30:15;;;;;;;14.75;6.10;;;;;;;;;;5111628;28;20027;-69
2021/08/14 14:32:41;;;;;;;9.55;5.75;;;;;;;;;;5115052;27;20024;-69
2021/08/14 14:35:08;;;;;;;11.43;5.72;;;;;;;;;;5115127;28;20030;-69
2021/08/14 14:37:34;;;;;;;8.52;5.68;;;;;;;;;;5114766;28;20031;-69
2021/08/14 14:40:01;;;;;;;13.82;5.90;;;;;;;;;;5115751;28;20072;-70
2021/08/14 14:42:27;;;;;;;8.40;5.57;;;;;;;;;;5113111;28;20469;-70
2021/08/14 14:44:53;;;;;;;7.15;5.40;;;;;;;;;;5113767;28;20026;-69
2021/08/14 14:47:19;;;;;;;11.25;5.65;;;;;;;;;;5112849;28;20024;-69
2021/08/14 14:49:45;;;;;;;9.95;5.50;;;;;;;;;;5113577;28;20023;-70